Terminal Aerodrome Forecast
Issued by NWS

Home | Current Version | Previous Version | Text Only | Print | Product List | Glossary On
Versions: 1 2 3 4 5 6 7 8 9 10 11 12
000
FTUS45 KRIW 271727
TAFLND
TAF
KLND 271727Z 2718/2818 25008KT P6SM SCT120
     FM272100 33009KT P6SM VCTS SCT080CB BKN110
     FM280300 26007KT P6SM VCSH SCT090 BKN120
     FM281000 VRB05KT P6SM SCT120=

USA.gov is the U.S. government's official web portal to all federal, state and local government web resources and services.